Time;durP1;ratioP1;P1;durP2;ratioP2;P2;SDS_P1;SDS_P2;PMS_P1;PMS_P2;Temp;Humidity;BMP_temperature;BMP_pressure;BME280_temperature;BME280_humidity;BME280_pressure;Samples;Min_cycle;Max_cycle;Signal;HPM_P1;HPM_P2
2022/10/09 00:00:04;;;;;;;20.08;6.68;;;7.60;99.90;;;;;;6246952;23;20626;-85
2022/10/09 00:02:31;;;;;;;16.23;6.53;;;7.50;99.90;;;;;;6219355;23;20336;-85
2022/10/09 00:04:57;;;;;;;23.77;6.93;;;7.50;99.90;;;;;;6219681;23;20024;-85
2022/10/09 00:07:25;;;;;;;19.40;6.45;;;7.40;99.90;;;;;;6219072;23;20012;-85
2022/10/09 00:09:50;;;;;;;13.63;5.73;;;7.40;99.90;;;;;;6218656;23;20069;-85
2022/10/09 00:12:16;;;;;;;16.52;6.32;;;7.30;99.90;;;;;;6219086;23;20012;-85
2022/10/09 00:14:41;;;;;;;17.90;6.13;;;7.30;99.90;;;;;;6219542;23;20015;-85
2022/10/09 00:17:07;;;;;;;19.00;6.83;;;7.20;99.90;;;;;;6245236;23;20012;-85
2022/10/09 00:19:33;;;;;;;17.53;6.20;;;7.10;99.90;;;;;;6219403;23;20048;-85
2022/10/09 00:22:01;;;;;;;16.43;5.80;;;7.00;99.90;;;;;;6219321;23;20348;-85
2022/10/09 00:24:27;;;;;;;17.43;5.93;;;7.00;99.90;;;;;;6218043;23;20051;-85
2022/10/09 00:26:56;;;;;;;16.23;6.43;;;6.90;99.90;;;;;;6219221;23;20024;-85
2022/10/09 00:29:21;;;;;;;21.13;7.07;;;6.90;99.90;;;;;;6246137;23;20023;-85
2022/10/09 00:31:49;;;;;;;18.23;6.20;;;6.80;99.90;;;;;;6217818;23;20012;-85
2022/10/09 00:34:14;;;;;;;19.37;6.83;;;6.80;99.90;;;;;;6218959;23;20027;-85
2022/10/09 00:36:40;;;;;;;15.77;6.83;;;6.80;99.90;;;;;;6219222;23;20020;-85
2022/10/09 00:39:05;;;;;;;18.60;7.50;;;6.80;99.90;;;;;;6218079;23;20051;-85
2022/10/09 00:41:33;;;;;;;20.17;7.00;;;6.80;99.90;;;;;;6245904;23;20347;-85
2022/10/09 00:44:23;;;;;;;16.07;6.47;;;6.70;99.90;;;;;;6219298;23;20050;-85
2022/10/09 00:46:50;;;;;;;19.73;6.57;;;6.70;99.90;;;;;;6218987;23;20013;-85
2022/10/09 00:49:27;;;;;;;17.83;6.30;;;6.80;99.90;;;;;;6218590;23;20448;-85
2022/10/09 00:52:01;;;;;;;17.10;6.70;;;6.80;99.90;;;;;;6218284;23;20020;-85
2022/10/09 00:54:32;;;;;;;18.77;6.38;;;6.80;99.90;;;;;;6218899;23;20275;-85
2022/10/09 00:56:58;;;;;;;17.43;7.10;;;6.80;99.90;;;;;;6218437;23;20024;-85
2022/10/09 00:59:25;;;;;;;20.93;6.80;;;6.80;99.90;;;;;;6217871;23;20012;-85
2022/10/09 01:01:50;;;;;;;17.20;6.53;;;6.70;99.90;;;;;;6218847;23;20070;-85
2022/10/09 01:04:16;;;;;;;21.40;6.83;;;6.70;99.90;;;;;;6220232;23;20452;-85
2022/10/09 01:07:00;;;;;;;18.63;6.40;;;6.80;99.90;;;;;;6218575;23;20442;-85
2022/10/09 01:09:41;;;;;;;14.77;6.20;;;6.70;99.90;;;;;;6218532;23;20023;-85
2022/10/09 01:12:32;;;;;;;17.67;6.57;;;6.60;99.90;;;;;;6245496;23;20501;-85
2022/10/09 01:15:22;;;;;;;15.00;6.60;;;6.60;99.90;;;;;;6218823;23;20047;-86
2022/10/09 01:18:00;;;;;;;15.97;6.40;;;6.50;99.90;;;;;;6219106;23;20012;-85
2022/10/09 01:20:38;;;;;;;16.97;7.17;;;5.70;99.90;;;;;;6217659;23;20522;-85
2022/10/09 01:23:22;;;;;;;16.08;7.78;;;6.40;99.90;;;;;;6218654;23;20024;-85
2022/10/09 01:26:11;;;;;;;19.02;6.72;;;6.40;99.90;;;;;;6218923;23;20019;-85
2022/10/09 01:28:39;;;;;;;17.27;6.80;;;6.40;99.90;;;;;;6217963;23;20314;-85
2022/10/09 01:33:44;;;;;;;16.27;6.63;;;6.30;99.90;;;;;;6271340;22;20028;-85
2022/10/09 01:36:11;;;;;;;17.37;6.57;;;6.80;99.90;;;;;;6276218;22;20011;-85
2022/10/09 01:38:42;;;;;;;13.87;6.40;;;6.10;99.90;;;;;;6276483;22;20016;-85
2022/10/09 01:41:08;;;;;;;19.83;6.80;;;6.50;99.90;;;;;;6274339;22;20019;-85
2022/10/09 01:43:34;;;;;;;21.30;7.17;;;6.00;99.90;;;;;;6249001;22;20057;-85
2022/10/09 01:46:30;;;;;;;16.97;6.90;;;6.00;99.90;;;;;;6249052;22;20069;-85
2022/10/09 01:49:15;;;;;;;16.20;6.47;;;5.90;99.90;;;;;;6248666;22;20022;-85
2022/10/09 01:52:13;;;;;;;13.53;5.90;;;5.90;99.90;;;;;;6249390;22;20027;-85
2022/10/09 01:54:41;;;;;;;17.20;7.30;;;6.60;99.90;;;;;;6248342;22;20012;-85
2022/10/09 01:57:09;;;;;;;15.07;6.77;;;5.80;99.90;;;;;;6275636;22;20444;-85
2022/10/09 01:59:41;;;;;;;19.13;7.43;;;5.80;99.90;;;;;;6276079;22;20532;-85
2022/10/09 02:02:07;;;;;;;17.47;7.23;;;5.80;99.90;;;;;;6274157;22;20107;-85
2022/10/09 02:04:37;;;;;;;15.83;6.60;;;5.70;99.90;;;;;;6275088;22;20016;-85
2022/10/09 02:07:04;;;;;;;18.47;6.57;;;5.70;99.90;;;;;;6275043;22;20008;-85
2022/10/09 02:09:31;;;;;;;13.93;6.43;;;5.60;99.90;;;;;;6247168;22;20015;-84
2022/10/09 02:12:03;;;;;;;19.90;7.03;;;5.60;99.90;;;;;;6249839;22;20012;-85
2022/10/09 02:14:29;;;;;;;15.33;6.70;;;5.50;99.90;;;;;;6275448;22;20055;-85
2022/10/09 02:17:07;;;;;;;17.07;7.23;;;5.50;99.90;;;;;;6250530;22;20015;-85
2022/10/09 02:19:40;;;;;;;15.77;7.30;;;5.50;99.90;;;;;;6252196;22;20015;-85
2022/10/09 02:22:24;;;;;;;17.10;7.30;;;5.50;99.90;;;;;;6252024;22;20012;-85
2022/10/09 02:24:50;;;;;;;17.90;7.13;;;5.50;99.90;;;;;;6278850;22;20015;-85
2022/10/09 02:27:32;;;;;;;17.90;7.63;;;5.50;99.90;;;;;;6231992;22;20347;-85
2022/10/09 02:29:59;;;;;;;19.70;7.17;;;5.40;99.90;;;;;;6251320;22;20440;-85
2022/10/09 02:32:25;;;;;;;18.03;7.00;;;5.20;99.90;;;;;;6251793;22;20069;-85
2022/10/09 02:34:51;;;;;;;19.93;7.40;;;5.30;99.90;;;;;;6279363;22;20340;-85
2022/10/09 02:37:17;;;;;;;20.17;7.23;;;5.30;99.90;;;;;;6250863;22;20034;-85
2022/10/09 02:39:42;;;;;;;13.40;7.20;;;5.20;99.90;;;;;;6252218;22;20498;-85
2022/10/09 02:42:09;;;;;;;16.43;6.90;;;5.30;99.90;;;;;;6251874;22;20016;-85
2022/10/09 02:44:34;;;;;;;15.30;7.17;;;5.20;99.90;;;;;;6251287;22;20062;-85
2022/10/09 02:47:00;;;;;;;14.53;7.17;;;5.20;99.90;;;;;;6279770;22;20019;-85
2022/10/09 02:49:26;;;;;;;15.77;7.13;;;5.20;99.90;;;;;;6279188;22;20223;-85
2022/10/09 02:51:51;;;;;;;17.67;6.90;;;5.10;99.90;;;;;;6251361;22;20095;-85
2022/10/09 02:54:17;;;;;;;16.10;7.00;;;5.10;99.90;;;;;;6251855;22;20020;-85
2022/10/09 02:56:42;;;;;;;16.03;6.90;;;5.10;99.90;;;;;;6252034;22;20018;-85
2022/10/09 02:59:08;;;;;;;18.40;7.63;;;5.00;99.90;;;;;;6278307;22;20011;-85
2022/10/09 03:01:34;;;;;;;18.83;7.33;;;5.00;99.90;;;;;;6252170;22;20374;-85
2022/10/09 03:03:59;;;;;;;14.90;7.33;;;5.00;99.90;;;;;;6252192;22;20019;-85
2022/10/09 03:06:27;;;;;;;13.83;6.67;;;4.90;99.90;;;;;;6251029;22;20340;-85
2022/10/09 03:08:56;;;;;;;18.20;8.07;;;4.90;99.90;;;;;;6251855;22;20027;-84
2022/10/09 03:11:24;;;;;;;18.97;7.80;;;6.40;99.90;;;;;;6278648;22;20123;-85
2022/10/09 03:13:49;;;;;;;17.43;7.97;;;4.90;99.90;;;;;;6251214;22;20105;-85
2022/10/09 03:16:21;;;;;;;14.73;7.23;;;5.00;99.90;;;;;;6255304;22;20024;-85
2022/10/09 03:18:47;;;;;;;16.77;7.27;;;4.90;99.90;;;;;;6283932;22;20042;-85
2022/10/09 03:21:19;;;;;;;14.03;6.80;;;4.90;99.90;;;;;;6250933;22;20012;-85
2022/10/09 03:23:45;;;;;;;14.73;6.23;;;4.80;99.90;;;;;;6279510;22;20015;-85
2022/10/09 03:26:13;;;;;;;18.07;8.07;;;4.80;99.90;;;;;;6250412;22;20008;-85
2022/10/09 03:28:45;;;;;;;13.60;7.20;;;4.80;99.90;;;;;;6277213;22;20026;-85
2022/10/09 03:31:11;;;;;;;17.50;7.40;;;4.70;99.90;;;;;;6250044;22;20012;-85
2022/10/09 03:33:37;;;;;;;15.83;7.50;;;4.70;99.90;;;;;;6276102;22;20012;-85
2022/10/09 03:36:06;;;;;;;19.87;7.93;;;4.70;99.90;;;;;;6250314;22;20109;-85
2022/10/09 03:38:32;;;;;;;16.90;7.83;;;4.70;99.90;;;;;;6276854;22;20027;-85
2022/10/09 03:40:58;;;;;;;15.00;7.17;;;4.60;99.90;;;;;;6275765;22;20011;-84
2022/10/09 03:43:24;;;;;;;14.73;7.10;;;4.60;99.90;;;;;;6249541;22;20142;-85
2022/10/09 03:45:50;;;;;;;13.97;6.70;;;4.60;99.90;;;;;;6277667;22;20011;-85
2022/10/09 03:48:16;;;;;;;14.53;6.80;;;4.50;99.90;;;;;;6248697;22;20061;-85
2022/10/09 03:50:41;;;;;;;17.40;7.50;;;4.50;99.90;;;;;;6276981;22;20058;-85
2022/10/09 03:53:08;;;;;;;16.43;7.20;;;4.50;99.90;;;;;;6222321;23;20461;-85
2022/10/09 03:55:34;;;;;;;19.30;7.10;;;4.50;99.90;;;;;;6215430;23;20024;-85
2022/10/09 03:58:00;;;;;;;16.40;7.07;;;4.40;99.90;;;;;;6216474;23;20409;-85
2022/10/09 04:00:26;;;;;;;14.70;7.17;;;4.40;99.90;;;;;;6215773;23;20031;-85
2022/10/09 04:02:54;;;;;;;14.10;6.70;;;4.40;99.90;;;;;;6215162;23;20019;-85
2022/10/09 04:05:20;;;;;;;19.77;7.53;;;4.40;99.90;;;;;;6213276;23;20017;-85
2022/10/09 04:07:46;;;;;;;12.07;6.67;;;4.30;99.90;;;;;;6215526;23;20024;-85
2022/10/09 04:10:11;;;;;;;13.73;6.93;;;4.30;99.90;;;;;;6213181;23;20095;-85
2022/10/09 04:12:37;;;;;;;17.90;7.90;;;4.30;99.90;;;;;;6214181;23;20537;-85
2022/10/09 04:15:04;;;;;;;15.20;7.30;;;4.30;99.90;;;;;;6214576;23;20021;-85
2022/10/09 04:17:30;;;;;;;17.57;7.50;;;4.20;99.90;;;;;;6213413;23;20091;-85
2022/10/09 04:19:55;;;;;;;15.57;7.77;;;4.20;99.90;;;;;;6214540;23;20118;-85
2022/10/09 04:22:21;;;;;;;16.07;7.90;;;4.30;99.90;;;;;;6214586;23;20008;-85
2022/10/09 04:24:47;;;;;;;15.70;7.20;;;4.30;99.90;;;;;;6214500;23;20017;-85
2022/10/09 04:27:12;;;;;;;15.83;7.80;;;4.20;99.90;;;;;;6215419;23;20020;-85
2022/10/09 04:29:38;;;;;;;16.93;7.97;;;4.20;99.90;;;;;;6213465;23;20016;-85
2022/10/09 04:32:05;;;;;;;30.30;16.17;;;4.20;99.90;;;;;;6214317;23;20099;-85
2022/10/09 04:34:30;;;;;;;17.03;9.17;;;4.20;99.90;;;;;;6213288;23;20016;-85
2022/10/09 04:36:56;;;;;;;15.53;8.77;;;4.20;99.90;;;;;;6213244;23;20012;-85
2022/10/09 04:39:21;;;;;;;18.33;8.93;;;4.20;99.90;;;;;;6213905;23;20009;-85
2022/10/09 04:41:47;;;;;;;18.07;8.40;;;4.20;99.90;;;;;;6214050;23;20071;-85
2022/10/09 04:44:13;;;;;;;17.73;8.80;;;4.20;99.90;;;;;;6212863;23;20392;-85
2022/10/09 04:46:38;;;;;;;18.53;9.37;;;4.20;99.90;;;;;;6215757;23;20011;-85
2022/10/09 04:49:04;;;;;;;19.80;9.17;;;4.20;99.90;;;;;;6213981;23;20020;-85
2022/10/09 04:54:05;;;;;;;17.60;8.80;;;4.10;99.90;;;;;;6274850;22;20045;-85
2022/10/09 04:56:31;;;;;;;18.83;9.33;;;4.10;99.90;;;;;;6276273;22;20012;-85
2022/10/09 04:58:56;;;;;;;16.30;9.40;;;4.10;99.90;;;;;;6248181;22;20016;-85
2022/10/09 05:01:24;;;;;;;17.67;9.00;;;4.10;99.90;;;;;;6248861;22;20027;-85
2022/10/09 05:03:50;;;;;;;17.50;8.73;;;4.00;99.90;;;;;;6249351;22;20463;-86
2022/10/09 05:06:18;;;;;;;19.00;9.27;;;4.10;99.90;;;;;;6275325;22;20019;-85
2022/10/09 05:08:43;;;;;;;15.13;8.27;;;4.10;99.90;;;;;;6276656;22;20062;-85
2022/10/09 05:11:18;;;;;;;14.73;7.33;;;4.10;99.90;;;;;;6276266;22;20012;-86
2022/10/09 05:13:50;;;;;;;16.13;7.03;;;4.00;99.90;;;;;;6275612;22;20352;-85
2022/10/09 05:16:19;;;;;;;14.57;6.87;;;4.00;99.90;;;;;;6248882;22;20012;-85
2022/10/09 05:18:48;;;;;;;12.30;6.73;;;4.00;99.90;;;;;;6248397;22;20015;-85
2022/10/09 05:21:14;;;;;;;14.10;6.77;;;4.00;99.90;;;;;;6248856;22;20440;-85
2022/10/09 05:23:40;;;;;;;15.53;7.37;;;3.90;99.90;;;;;;6276189;22;20470;-85
2022/10/09 05:26:09;;;;;;;13.20;6.93;;;3.90;99.90;;;;;;6247504;22;20336;-85
2022/10/09 05:28:35;;;;;;;14.00;6.87;;;3.90;99.90;;;;;;6276465;22;20043;-85
2022/10/09 05:31:08;;;;;;;15.37;7.33;;;3.90;99.90;;;;;;6249139;22;20305;-85
2022/10/09 05:33:34;;;;;;;14.53;7.07;;;3.80;99.90;;;;;;6248986;22;20007;-85
2022/10/09 05:36:02;;;;;;;15.20;6.77;;;3.90;99.90;;;;;;6249262;22;20049;-85
2022/10/09 05:38:28;;;;;;;16.40;7.50;;;3.80;99.90;;;;;;6248697;22;20011;-85
2022/10/09 05:41:00;;;;;;;13.50;6.90;;;3.80;99.90;;;;;;6275297;22;20012;-85
2022/10/09 05:43:27;;;;;;;19.17;7.73;;;3.80;99.90;;;;;;6276157;22;20019;-86
2022/10/09 05:45:53;;;;;;;14.20;7.27;;;3.80;99.90;;;;;;6249138;22;20016;-85
2022/10/09 05:48:19;;;;;;;14.73;7.43;;;3.80;99.90;;;;;;6274590;22;20030;-85
2022/10/09 05:50:45;;;;;;;16.37;7.57;;;3.80;99.90;;;;;;6248792;22;20509;-85
2022/10/09 05:53:11;;;;;;;15.60;7.27;;;3.80;99.90;;;;;;6248254;22;20020;-85
2022/10/09 05:55:36;;;;;;;17.00;7.73;;;3.80;99.90;;;;;;6274596;22;20146;-86
2022/10/09 05:58:02;;;;;;;15.47;8.27;;;3.80;99.90;;;;;;6249055;22;20046;-85
2022/10/09 06:00:28;;;;;;;15.50;7.97;;;3.80;99.90;;;;;;6248491;22;20020;-86
2022/10/09 06:02:54;;;;;;;15.67;8.53;;;3.80;99.90;;;;;;6247895;22;20012;-85
2022/10/09 06:05:20;;;;;;;16.73;8.47;;;3.80;99.90;;;;;;6248345;22;20011;-86
2022/10/09 06:07:46;;;;;;;18.33;7.80;;;3.90;99.90;;;;;;6248183;22;20016;-85
2022/10/09 06:10:12;;;;;;;15.90;8.03;;;3.90;99.90;;;;;;6248415;22;20466;-86
2022/10/09 06:12:38;;;;;;;14.90;8.03;;;3.90;99.90;;;;;;6210728;22;20398;-85
2022/10/09 06:15:23;;;;;;;15.33;8.27;;;3.70;99.90;;;;;;6248374;22;20375;-86
2022/10/09 06:17:57;;;;;;;15.53;7.97;;;3.90;99.90;;;;;;6248785;22;20020;-85
2022/10/09 06:21:02;;;;;;;13.87;7.57;;;3.50;99.90;;;;;;6275787;22;20074;-86
2022/10/09 06:24:15;;;;;;;17.20;7.93;;;3.00;99.90;;;;;;6275170;22;20028;-86
2022/10/09 06:26:48;;;;;;;19.30;8.30;;;4.40;99.90;;;;;;6248559;22;20114;-85
2022/10/09 06:29:13;;;;;;;15.90;8.35;;;3.80;99.90;;;;;;6247382;22;20016;-85
2022/10/09 06:31:39;;;;;;;15.00;7.80;;;4.00;99.90;;;;;;6248964;22;20062;-86
2022/10/09 06:34:05;;;;;;;14.83;7.93;;;4.00;99.90;;;;;;6248933;22;20317;-86
2022/10/09 06:36:35;;;;;;;17.73;8.10;;;4.00;99.90;;;;;;6275208;22;20034;-86
2022/10/09 06:39:04;;;;;;;16.97;8.70;;;4.10;99.90;;;;;;6249651;22;20022;-86
2022/10/09 06:41:30;;;;;;;17.00;8.77;;;4.10;99.90;;;;;;6248459;22;20016;-86
2022/10/09 06:44:03;;;;;;;18.93;9.30;;;4.20;99.90;;;;;;6247947;22;20081;-85
2022/10/09 06:46:37;;;;;;;20.35;10.45;;;4.30;99.90;;;;;;6248174;22;20012;-86
2022/10/09 06:49:04;;;;;;;23.80;10.47;;;4.40;99.90;;;;;;6276057;22;20086;-86
2022/10/09 06:51:29;;;;;;;20.03;10.60;;;4.70;99.90;;;;;;6274133;22;20386;-85
2022/10/09 06:53:58;;;;;;;21.97;11.17;;;4.50;99.90;;;;;;6248768;22;20038;-86
2022/10/09 06:56:26;;;;;;;20.10;10.80;;;4.60;99.90;;;;;;6275633;22;20011;-85
2022/10/09 06:58:52;;;;;;;21.10;10.73;;;4.60;99.90;;;;;;6275272;22;20077;-82
2022/10/09 07:01:22;;;;;;;22.77;11.20;;;4.80;99.90;;;;;;6275542;22;20448;-82
2022/10/09 07:03:54;;;;;;;23.90;13.40;;;4.80;99.90;;;;;;6250629;22;20016;-82
2022/10/09 07:06:25;;;;;;;25.80;12.97;;;4.90;99.90;;;;;;6249383;22;20016;-82
2022/10/09 07:08:58;;;;;;;24.73;13.87;;;5.00;99.90;;;;;;6277952;22;20007;-82
2022/10/09 07:11:26;;;;;;;26.03;13.27;;;5.10;99.90;;;;;;6276552;22;20205;-82
2022/10/09 07:13:57;;;;;;;27.67;13.43;;;5.20;99.90;;;;;;6277799;22;20034;-83
2022/10/09 07:16:26;;;;;;;28.73;13.90;;;5.30;99.90;;;;;;6276997;22;20024;-82
2022/10/09 07:18:51;;;;;;;28.60;14.87;;;6.50;99.90;;;;;;6277014;22;20344;-83
2022/10/09 07:21:18;;;;;;;28.73;14.77;;;5.40;99.90;;;;;;6250018;22;20049;-82
2022/10/09 07:23:44;;;;;;;31.93;15.57;;;5.50;99.90;;;;;;6250217;22;20440;-83
2022/10/09 07:26:22;;;;;;;32.43;15.60;;;5.50;99.90;;;;;;6248838;22;20038;-83
2022/10/09 07:28:48;;;;;;;28.83;15.30;;;5.70;99.90;;;;;;6277706;22;20011;-83
2022/10/09 07:31:14;;;;;;;27.50;14.90;;;5.80;99.90;;;;;;6277299;22;20026;-83
2022/10/09 07:33:40;;;;;;;30.80;15.93;;;5.90;99.90;;;;;;6276644;22;20008;-83
2022/10/09 07:36:07;;;;;;;31.20;16.23;;;6.00;99.90;;;;;;6250022;22;20019;-83
2022/10/09 07:38:33;;;;;;;34.33;17.00;;;6.10;99.90;;;;;;6250185;22;20368;-83
2022/10/09 07:41:00;;;;;;;36.00;17.40;;;6.20;99.90;;;;;;6249162;22;20027;-83
2022/10/09 07:43:27;;;;;;;34.00;17.30;;;6.30;99.90;;;;;;6277269;22;20043;-83
2022/10/09 07:45:52;;;;;;;33.93;16.27;;;6.40;99.90;;;;;;6250311;22;20065;-83
2022/10/09 07:48:18;;;;;;;37.27;18.77;;;6.50;99.90;;;;;;6248929;22;20335;-83
2022/10/09 07:50:43;;;;;;;36.67;19.07;;;6.60;99.90;;;;;;6250573;22;20023;-83
2022/10/09 07:53:09;;;;;;;39.53;20.60;;;6.60;99.90;;;;;;6277151;22;20046;-83
2022/10/09 07:55:35;;;;;;;32.23;18.37;;;6.70;99.90;;;;;;6249138;22;20011;-83
2022/10/09 07:58:01;;;;;;;35.57;18.40;;;6.80;99.90;;;;;;6249952;22;20414;-83
2022/10/09 08:00:26;;;;;;;33.93;17.27;;;7.00;99.90;;;;;;6248436;22;20046;-83
2022/10/09 08:02:52;;;;;;;40.63;18.10;;;7.10;99.90;;;;;;6277335;22;20019;-83
2022/10/09 08:05:18;;;;;;;37.00;18.60;;;7.20;99.90;;;;;;6249306;22;20018;-83
2022/10/09 08:07:43;;;;;;;36.93;16.73;;;7.30;99.90;;;;;;6276095;22;20011;-83
2022/10/09 08:10:09;;;;;;;35.83;17.20;;;7.40;99.90;;;;;;6275987;22;20020;-83
2022/10/09 08:12:35;;;;;;;35.13;17.10;;;7.50;99.90;;;;;;6276949;22;20015;-83
2022/10/09 08:15:00;;;;;;;29.47;15.80;;;7.60;99.90;;;;;;6248582;22;20031;-83
2022/10/09 08:17:26;;;;;;;32.40;15.47;;;7.60;99.90;;;;;;6276914;22;20507;-83
2022/10/09 08:19:51;;;;;;;50.77;15.90;;;7.80;99.90;;;;;;6249968;22;20011;-83
2022/10/09 08:22:17;;;;;;;28.77;15.43;;;7.80;99.90;;;;;;6275640;22;20022;-83
2022/10/09 08:24:42;;;;;;;30.40;14.97;;;8.00;99.90;;;;;;6249917;22;20015;-83
2022/10/09 08:27:08;;;;;;;29.33;14.63;;;8.10;99.90;;;;;;6249412;22;20454;-83
2022/10/09 08:29:34;;;;;;;30.08;14.15;;;8.20;99.90;;;;;;6248711;22;20098;-83
2022/10/09 08:31:59;;;;;;;27.88;14.00;;;8.30;99.90;;;;;;6249632;22;20400;-83
2022/10/09 08:34:25;;;;;;;28.50;14.02;;;8.40;99.90;;;;;;6249339;22;20022;-83
2022/10/09 08:36:50;;;;;;;24.60;13.70;;;8.40;99.90;;;;;;6248896;22;20340;-83
2022/10/09 08:39:16;;;;;;;23.38;12.88;;;8.50;99.90;;;;;;6249176;22;20095;-83
2022/10/09 08:41:47;;;;;;;27.25;13.50;;;8.60;99.90;;;;;;6249572;22;20019;-83
2022/10/09 08:44:22;;;;;;;29.47;12.43;;;8.80;99.90;;;;;;6275266;22;20356;-83
2022/10/09 08:47:11;;;;;;;24.75;12.43;;;9.90;99.90;;;;;;6249169;22;20026;-83
2022/10/09 08:49:56;;;;;;;22.92;11.93;;;9.00;99.90;;;;;;6275578;22;20015;-83
2022/10/09 08:52:35;;;;;;;23.85;11.13;;;9.40;99.90;;;;;;6250158;22;20016;-83
2022/10/09 08:55:15;;;;;;;21.75;10.75;;;9.20;99.90;;;;;;6248303;22;20016;-83
2022/10/09 08:57:43;;;;;;;20.90;10.52;;;9.40;99.90;;;;;;6275710;22;20046;-83
2022/10/09 09:00:18;;;;;;;23.65;11.13;;;9.40;99.90;;;;;;6248907;22;20011;-83
2022/10/09 09:03:25;;;;;;;22.17;10.50;;;9.50;99.90;;;;;;6249224;22;20031;-83
2022/10/09 09:06:16;;;;;;;22.48;9.70;;;9.60;99.90;;;;;;6166644;22;20107;-83
2022/10/09 09:08:51;;;;;;;21.42;10.02;;;9.70;99.90;;;;;;6182881;22;20023;-83
2022/10/09 09:11:46;;;;;;;20.58;10.00;;;9.90;99.90;;;;;;6247733;22;20081;-83
2022/10/09 09:14:11;;;;;;;18.05;8.60;;;9.90;99.90;;;;;;6242578;22;20015;-83
2022/10/09 09:16:55;;;;;;;20.67;9.15;;;10.00;99.90;;;;;;6249677;22;20154;-83
2022/10/09 09:19:58;;;;;;;17.40;9.15;;;10.10;99.90;;;;;;6247848;22;20011;-83
2022/10/09 09:22:25;;;;;;;16.30;8.45;;;10.20;99.90;;;;;;6276381;22;20015;-83
2022/10/09 09:24:56;;;;;;;18.27;8.52;;;10.40;99.90;;;;;;6275569;22;20016;-83
2022/10/09 09:27:31;;;;;;;15.77;7.35;;;10.40;99.90;;;;;;6275491;22;20321;-83
2022/10/09 09:30:34;;;;;;;15.20;7.85;;;10.60;99.90;;;;;;6248953;22;20447;-83
2022/10/09 09:33:24;;;;;;;15.50;6.90;;;10.70;99.90;;;;;;6196662;22;20084;-83
2022/10/09 09:36:00;;;;;;;15.27;7.43;;;10.90;99.90;;;;;;6276696;22;20053;-83
2022/10/09 09:38:26;;;;;;;16.13;7.05;;;10.90;99.90;;;;;;6248683;22;20020;-83
2022/10/09 09:40:52;;;;;;;14.32;6.45;;;11.00;99.90;;;;;;6247997;22;20047;-83
2022/10/09 09:43:21;;;;;;;16.55;6.90;;;11.20;99.90;;;;;;6248591;22;20094;-83
2022/10/09 09:45:50;;;;;;;18.13;6.32;;;11.30;99.90;;;;;;6249101;22;20065;-83
2022/10/09 09:48:30;;;;;;;16.20;5.80;;;11.40;99.90;;;;;;6250845;22;20051;-83
2022/10/09 09:50:56;;;;;;;14.63;5.53;;;11.70;99.90;;;;;;6279132;22;20510;-84
2022/10/09 09:53:32;;;;;;;15.05;5.82;;;11.80;99.90;;;;;;6248560;22;20020;-83
2022/10/09 09:55:58;;;;;;;11.15;4.88;;;12.00;99.90;;;;;;6249030;22;20348;-83
2022/10/09 09:58:39;;;;;;;14.30;5.35;;;12.10;99.90;;;;;;6248443;22;20016;-83
2022/10/09 10:01:06;;;;;;;14.45;5.20;;;12.10;99.90;;;;;;6248085;22;20019;-83
2022/10/09 10:03:34;;;;;;;12.10;4.50;;;12.30;99.90;;;;;;6248947;22;20035;-83
2022/10/09 10:06:03;;;;;;;12.90;5.28;;;12.40;99.90;;;;;;6249019;22;20016;-83
2022/10/09 10:08:31;;;;;;;11.55;3.88;;;12.50;99.90;;;;;;6246856;22;20343;-83
2022/10/09 10:11:04;;;;;;;11.00;4.00;;;12.70;99.90;;;;;;6276350;22;20078;-83
2022/10/09 10:13:36;;;;;;;13.93;3.85;;;12.80;99.90;;;;;;6248216;22;20118;-83
2022/10/09 10:16:04;;;;;;;12.80;3.90;;;12.90;99.90;;;;;;6274765;22;20054;-85
2022/10/09 10:18:36;;;;;;;13.07;4.00;;;13.10;99.90;;;;;;6246175;22;20050;-83
2022/10/09 10:21:14;;;;;;;11.57;3.90;;;13.10;99.90;;;;;;6246630;22;20517;-83
2022/10/09 10:24:02;;;;;;;10.40;4.18;;;13.30;99.90;;;;;;6244869;22;20510;-83
2022/10/09 10:26:51;;;;;;;14.75;4.43;;;13.40;99.90;;;;;;6245176;22;20321;-84
2022/10/09 10:35:23;;;;;;;12.27;4.88;;;13.80;99.90;;;;;;6271687;22;20629;-81
2022/10/09 10:38:06;;;;;;;11.20;4.00;;;15.20;99.90;;;;;;6274080;22;20051;-82
2022/10/09 10:40:33;;;;;;;12.95;3.97;;;14.20;99.90;;;;;;6276767;22;20022;-82
2022/10/09 10:43:07;;;;;;;10.63;3.30;;;15.30;99.90;;;;;;6248940;22;20440;-82
2022/10/09 10:45:36;;;;;;;13.38;3.88;;;14.30;99.90;;;;;;6249702;22;20018;-83
2022/10/09 10:48:03;;;;;;;11.90;4.03;;;14.30;99.90;;;;;;6276749;22;20344;-82
2022/10/09 10:50:36;;;;;;;11.45;4.68;;;14.30;99.90;;;;;;6248368;22;20593;-82
2022/10/09 10:53:48;;;;;;;13.00;4.10;;;14.30;99.90;;;;;;6277264;22;20370;-82
2022/10/09 10:57:00;;;;;;;10.77;3.58;;;14.40;99.90;;;;;;6122803;23;20181;-82
2022/10/09 10:59:25;;;;;;;11.15;3.03;;;14.60;99.90;;;;;;6157899;23;20128;-82
2022/10/09 11:02:28;;;;;;;10.90;3.33;;;14.70;99.90;;;;;;6158681;23;20048;-82
2022/10/09 11:05:26;;;;;;;10.38;3.35;;;14.70;99.90;;;;;;6228270;22;20016;-82
2022/10/09 11:08:11;;;;;;;11.98;3.42;;;14.90;99.90;;;;;;6249041;22;20022;-82
2022/10/09 11:11:01;;;;;;;10.38;3.38;;;15.10;99.90;;;;;;6248465;22;20018;-82
2022/10/09 11:13:33;;;;;;;11.82;3.72;;;15.10;99.90;;;;;;6249415;22;20042;-82
2022/10/09 11:16:23;;;;;;;10.80;3.75;;;15.20;99.90;;;;;;6250222;22;20046;-82
2022/10/09 11:19:04;;;;;;;9.00;3.10;;;15.30;99.90;;;;;;6249174;22;20027;-82
2022/10/09 11:22:05;;;;;;;15.70;5.53;;;16.50;99.90;;;;;;6277156;22;20019;-83
2022/10/09 11:25:07;;;;;;;11.68;3.70;;;15.60;99.90;;;;;;6271299;22;20015;-83
2022/10/09 11:27:46;;;;;;;11.05;2.40;;;15.60;99.90;;;;;;6249479;22;20016;-83
2022/10/09 11:30:15;;;;;;;7.57;2.63;;;15.70;99.90;;;;;;6248313;22;20042;-83
2022/10/09 11:32:59;;;;;;;8.15;2.50;;;16.10;99.90;;;;;;6247841;22;20033;-83
2022/10/09 11:35:42;;;;;;;13.00;2.65;;;15.80;99.90;;;;;;6249434;22;20460;-83
2022/10/09 11:38:25;;;;;;;9.05;2.72;;;16.70;99.90;;;;;;6249526;22;20015;-82
2022/10/09 11:40:52;;;;;;;8.15;2.67;;;16.00;99.90;;;;;;6250021;22;20098;-82
2022/10/09 11:43:27;;;;;;;8.90;2.85;;;16.80;99.90;;;;;;6276711;22;20008;-82
2022/10/09 11:46:17;;;;;;;10.50;2.78;;;16.00;99.90;;;;;;6248872;22;20020;-82
2022/10/09 11:49:20;;;;;;;11.20;2.72;;;16.00;99.90;;;;;;6276950;22;20019;-82
2022/10/09 11:52:02;;;;;;;9.30;2.70;;;16.20;99.90;;;;;;6277213;22;20011;-82
2022/10/09 11:54:28;;;;;;;9.25;2.78;;;16.90;99.90;;;;;;6248651;22;20023;-82
2022/10/09 11:56:59;;;;;;;15.00;2.92;;;16.30;99.90;;;;;;6277102;22;20054;-82
2022/10/09 11:59:30;;;;;;;11.13;3.25;;;16.40;99.90;;;;;;6249661;22;20090;-82
2022/10/09 12:02:11;;;;;;;10.30;3.17;;;16.40;99.90;;;;;;6274419;22;20066;-82
2022/10/09 12:04:37;;;;;;;10.30;3.13;;;17.00;99.90;;;;;;6275550;22;20069;-82
2022/10/09 12:07:08;;;;;;;10.35;2.50;;;16.50;99.90;;;;;;6275258;22;20004;-82
2022/10/09 12:09:43;;;;;;;11.95;2.97;;;16.60;99.90;;;;;;6276306;22;20101;-82
2022/10/09 12:12:21;;;;;;;9.13;3.00;;;16.60;99.90;;;;;;6251136;22;20018;-82
2022/10/09 12:14:49;;;;;;;10.20;3.10;;;16.60;99.90;;;;;;6274878;22;20498;-82
2022/10/09 12:17:16;;;;;;;12.90;3.10;;;16.70;99.90;;;;;;6248198;22;20026;-82
2022/10/09 12:19:42;;;;;;;12.40;3.30;;;16.80;99.90;;;;;;6275812;22;20455;-82
2022/10/09 12:22:39;;;;;;;9.63;2.70;;;16.80;99.90;;;;;;6275338;22;20008;-82
2022/10/09 12:25:30;;;;;;;10.57;2.70;;;16.80;99.90;;;;;;6276798;22;20028;-82
2022/10/09 12:27:58;;;;;;;11.90;3.17;;;16.90;99.90;;;;;;6229922;22;20580;-82
2022/10/09 12:30:38;;;;;;;9.32;2.72;;;17.00;99.90;;;;;;6248232;22;20016;-83
2022/10/09 12:33:28;;;;;;;9.25;2.83;;;17.10;99.90;;;;;;6248812;22;20023;-82
2022/10/09 12:36:14;;;;;;;9.52;2.80;;;17.00;99.90;;;;;;6248279;22;20034;-82
2022/10/09 12:38:41;;;;;;;10.20;2.80;;;17.10;99.90;;;;;;6276597;22;20015;-82
2022/10/09 12:41:20;;;;;;;11.65;3.28;;;17.00;99.90;;;;;;6276347;22;20019;-82
2022/10/09 12:43:48;;;;;;;12.10;2.90;;;17.00;99.90;;;;;;6248453;22;20012;-82
2022/10/09 12:46:23;;;;;;;10.20;2.83;;;17.20;99.90;;;;;;6249140;22;20098;-82
2022/10/09 12:48:49;;;;;;;10.82;2.80;;;17.20;99.90;;;;;;6247840;22;20090;-82
2022/10/09 12:51:20;;;;;;;9.20;2.50;;;17.30;99.90;;;;;;6248193;22;20058;-82
2022/10/09 12:53:48;;;;;;;10.40;2.42;;;17.40;99.90;;;;;;6248439;22;20370;-82
2022/10/09 12:56:17;;;;;;;11.77;2.83;;;17.60;99.90;;;;;;6247594;22;20322;-82
2022/10/09 12:58:42;;;;;;;9.07;2.72;;;17.70;99.90;;;;;;6247791;22;20011;-82
2022/10/09 13:01:14;;;;;;;8.52;2.70;;;18.20;99.90;;;;;;6248267;22;20015;-82
2022/10/09 13:04:02;;;;;;;12.35;3.10;;;18.40;99.90;;;;;;6248189;22;20015;-82
2022/10/09 13:06:46;;;;;;;11.68;2.80;;;17.60;99.90;;;;;;6276026;22;20018;-82
2022/10/09 13:09:32;;;;;;;9.05;2.60;;;18.60;99.90;;;;;;6275543;22;20015;-82
2022/10/09 13:12:03;;;;;;;10.43;2.45;;;17.50;99.90;;;;;;6275247;22;20008;-82
2022/10/09 13:14:34;;;;;;;8.82;2.40;;;17.60;99.90;;;;;;6248558;22;20020;-82
2022/10/09 13:17:00;;;;;;;11.68;2.80;;;17.50;99.90;;;;;;6275236;22;20490;-82